sensor_id;sensor_type;location;lat;lon;timestamp;P1;durP1;ratioP1;P2;durP2;ratioP2
67352;SDS011;54238;52.278;21.056;2023-04-06T00:00:00;17.30;;;6.60;;
67352;SDS011;54238;52.278;21.056;2023-04-06T00:02:27;16.10;;;7.30;;
67352;SDS011;54238;52.278;21.056;2023-04-06T00:04:57;16.00;;;7.00;;
67352;SDS011;54238;52.278;21.056;2023-04-06T00:07:29;16.30;;;6.20;;
67352;SDS011;54238;52.278;21.056;2023-04-06T00:09:57;10.70;;;5.50;;
67352;SDS011;54238;52.278;21.056;2023-04-06T00:15:24;16.30;;;6.80;;
67352;SDS011;54238;52.278;21.056;2023-04-06T00:17:52;15.40;;;6.10;;
67352;SDS011;54238;52.278;21.056;2023-04-06T00:20:22;21.10;;;8.40;;
67352;SDS011;54238;52.278;21.056;2023-04-06T00:25:25;21.30;;;8.10;;
67352;SDS011;54238;52.278;21.056;2023-04-06T00:27:57;17.30;;;7.00;;
67352;SDS011;54238;52.278;21.056;2023-04-06T00:30:27;17.90;;;6.60;;
67352;SDS011;54238;52.278;21.056;2023-04-06T00:32:56;13.20;;;6.40;;
67352;SDS011;54238;52.278;21.056;2023-04-06T00:35:23;15.10;;;6.90;;
67352;SDS011;54238;52.278;21.056;2023-04-06T00:37:54;14.10;;;6.60;;
67352;SDS011;54238;52.278;21.056;2023-04-06T00:40:31;11.70;;;5.80;;
67352;SDS011;54238;52.278;21.056;2023-04-06T00:43:04;16.30;;;6.70;;
67352;SDS011;54238;52.278;21.056;2023-04-06T00:45:39;10.10;;;5.70;;
67352;SDS011;54238;52.278;21.056;2023-04-06T00:48:12;15.20;;;6.50;;
67352;SDS011;54238;52.278;21.056;2023-04-06T00:50:40;18.10;;;5.10;;
67352;SDS011;54238;52.278;21.056;2023-04-06T00:53:09;14.30;;;6.00;;
67352;SDS011;54238;52.278;21.056;2023-04-06T00:55:41;12.70;;;5.70;;
67352;SDS011;54238;52.278;21.056;2023-04-06T00:58:13;15.20;;;6.40;;
67352;SDS011;54238;52.278;21.056;2023-04-06T01:00:40;18.20;;;6.90;;
67352;SDS011;54238;52.278;21.056;2023-04-06T01:03:08;13.70;;;6.10;;
67352;SDS011;54238;52.278;21.056;2023-04-06T01:05:37;12.10;;;5.70;;
67352;SDS011;54238;52.278;21.056;2023-04-06T01:08:07;13.90;;;5.70;;
67352;SDS011;54238;52.278;21.056;2023-04-06T01:10:34;17.70;;;5.50;;
67352;SDS011;54238;52.278;21.056;2023-04-06T01:13:02;11.30;;;5.50;;
67352;SDS011;54238;52.278;21.056;2023-04-06T01:15:33;12.00;;;6.00;;
67352;SDS011;54238;52.278;21.056;2023-04-06T01:18:02;10.30;;;5.50;;
67352;SDS011;54238;52.278;21.056;2023-04-06T01:20:34;15.00;;;6.00;;
67352;SDS011;54238;52.278;21.056;2023-04-06T01:23:03;12.30;;;6.00;;
67352;SDS011;54238;52.278;21.056;2023-04-06T01:25:35;13.40;;;6.30;;
67352;SDS011;54238;52.278;21.056;2023-04-06T01:28:06;12.30;;;4.80;;
67352;SDS011;54238;52.278;21.056;2023-04-06T01:30:37;11.30;;;5.10;;
67352;SDS011;54238;52.278;21.056;2023-04-06T01:33:08;9.00;;;5.40;;
67352;SDS011;54238;52.278;21.056;2023-04-06T01:35:38;12.70;;;6.00;;
67352;SDS011;54238;52.278;21.056;2023-04-06T01:38:04;9.30;;;5.30;;
67352;SDS011;54238;52.278;21.056;2023-04-06T01:40:32;11.80;;;5.60;;
67352;SDS011;54238;52.278;21.056;2023-04-06T01:43:01;12.20;;;5.10;;
67352;SDS011;54238;52.278;21.056;2023-04-06T01:45:29;7.90;;;4.50;;
67352;SDS011;54238;52.278;21.056;2023-04-06T01:47:58;11.40;;;4.70;;
67352;SDS011;54238;52.278;21.056;2023-04-06T01:50:29;9.60;;;4.90;;
67352;SDS011;54238;52.278;21.056;2023-04-06T01:52:59;10.50;;;5.00;;
67352;SDS011;54238;52.278;21.056;2023-04-06T01:55:28;9.10;;;4.80;;
67352;SDS011;54238;52.278;21.056;2023-04-06T01:57:56;14.80;;;5.70;;
67352;SDS011;54238;52.278;21.056;2023-04-06T02:00:25;10.80;;;4.90;;
67352;SDS011;54238;52.278;21.056;2023-04-06T02:02:57;12.20;;;4.80;;
67352;SDS011;54238;52.278;21.056;2023-04-06T02:05:28;15.50;;;5.60;;
67352;SDS011;54238;52.278;21.056;2023-04-06T02:08:01;10.30;;;5.50;;
67352;SDS011;54238;52.278;21.056;2023-04-06T02:10:28;10.90;;;5.30;;
67352;SDS011;54238;52.278;21.056;2023-04-06T02:12:59;13.70;;;5.80;;
67352;SDS011;54238;52.278;21.056;2023-04-06T02:15:27;11.20;;;4.90;;
67352;SDS011;54238;52.278;21.056;2023-04-06T02:17:54;10.20;;;5.40;;
67352;SDS011;54238;52.278;21.056;2023-04-06T02:20:21;12.00;;;5.30;;
67352;SDS011;54238;52.278;21.056;2023-04-06T02:22:50;9.60;;;5.20;;
67352;SDS011;54238;52.278;21.056;2023-04-06T02:25:17;9.80;;;5.40;;
67352;SDS011;54238;52.278;21.056;2023-04-06T02:27:47;10.00;;;5.30;;
67352;SDS011;54238;52.278;21.056;2023-04-06T02:30:14;10.00;;;5.30;;
67352;SDS011;54238;52.278;21.056;2023-04-06T02:32:41;11.20;;;5.80;;
67352;SDS011;54238;52.278;21.056;2023-04-06T02:35:09;7.50;;;5.00;;
67352;SDS011;54238;52.278;21.056;2023-04-06T02:37:38;18.20;;;6.80;;
67352;SDS011;54238;52.278;21.056;2023-04-06T02:40:08;11.00;;;5.00;;
67352;SDS011;54238;52.278;21.056;2023-04-06T02:42:40;11.50;;;5.80;;
67352;SDS011;54238;52.278;21.056;2023-04-06T02:45:14;11.30;;;5.50;;
67352;SDS011;54238;52.278;21.056;2023-04-06T02:47:44;14.50;;;6.00;;
67352;SDS011;54238;52.278;21.056;2023-04-06T02:50:11;13.60;;;6.40;;
67352;SDS011;54238;52.278;21.056;2023-04-06T02:52:38;10.90;;;5.90;;
67352;SDS011;54238;52.278;21.056;2023-04-06T02:55:07;13.50;;;5.90;;
67352;SDS011;54238;52.278;21.056;2023-04-06T02:57:36;12.30;;;5.60;;
67352;SDS011;54238;52.278;21.056;2023-04-06T03:00:08;14.10;;;5.60;;
67352;SDS011;54238;52.278;21.056;2023-04-06T03:02:36;9.90;;;5.90;;
67352;SDS011;54238;52.278;21.056;2023-04-06T03:05:03;14.30;;;6.80;;
67352;SDS011;54238;52.278;21.056;2023-04-06T03:07:31;13.60;;;6.40;;
67352;SDS011;54238;52.278;21.056;2023-04-06T03:10:00;16.50;;;6.10;;
67352;SDS011;54238;52.278;21.056;2023-04-06T03:12:31;11.00;;;6.10;;
67352;SDS011;54238;52.278;21.056;2023-04-06T03:15:00;14.60;;;7.90;;
67352;SDS011;54238;52.278;21.056;2023-04-06T03:20:00;15.10;;;7.30;;
67352;SDS011;54238;52.278;21.056;2023-04-06T03:22:33;21.90;;;7.10;;
67352;SDS011;54238;52.278;21.056;2023-04-06T03:25:00;17.20;;;7.60;;
67352;SDS011;54238;52.278;21.056;2023-04-06T03:27:30;14.00;;;7.00;;
67352;SDS011;54238;52.278;21.056;2023-04-06T03:29:59;17.60;;;7.10;;
67352;SDS011;54238;52.278;21.056;2023-04-06T03:32:26;17.90;;;7.60;;
67352;SDS011;54238;52.278;21.056;2023-04-06T03:34:56;18.50;;;8.00;;
67352;SDS011;54238;52.278;21.056;2023-04-06T03:37:26;16.60;;;7.70;;
67352;SDS011;54238;52.278;21.056;2023-04-06T03:39:55;19.30;;;7.80;;
67352;SDS011;54238;52.278;21.056;2023-04-06T03:42:22;19.10;;;8.30;;
67352;SDS011;54238;52.278;21.056;2023-04-06T03:44:49;17.60;;;7.80;;
67352;SDS011;54238;52.278;21.056;2023-04-06T03:47:26;20.20;;;8.10;;
67352;SDS011;54238;52.278;21.056;2023-04-06T03:49:55;18.30;;;7.20;;
67352;SDS011;54238;52.278;21.056;2023-04-06T03:52:22;16.50;;;7.60;;
67352;SDS011;54238;52.278;21.056;2023-04-06T03:54:52;16.40;;;7.80;;
67352;SDS011;54238;52.278;21.056;2023-04-06T03:57:19;25.70;;;8.60;;
67352;SDS011;54238;52.278;21.056;2023-04-06T03:59:46;21.50;;;8.50;;
67352;SDS011;54238;52.278;21.056;2023-04-06T04:02:20;18.10;;;7.50;;
67352;SDS011;54238;52.278;21.056;2023-04-06T04:04:50;17.90;;;8.60;;
67352;SDS011;54238;52.278;21.056;2023-04-06T04:07:17;18.40;;;7.80;;
67352;SDS011;54238;52.278;21.056;2023-04-06T04:09:44;16.20;;;7.90;;
67352;SDS011;54238;52.278;21.056;2023-04-06T04:12:11;19.90;;;8.70;;
67352;SDS011;54238;52.278;21.056;2023-04-06T04:14:38;14.50;;;7.10;;
67352;SDS011;54238;52.278;21.056;2023-04-06T04:17:09;17.50;;;8.10;;
67352;SDS011;54238;52.278;21.056;2023-04-06T04:19:39;21.20;;;7.40;;
67352;SDS011;54238;52.278;21.056;2023-04-06T04:22:08;20.30;;;8.40;;
67352;SDS011;54238;52.278;21.056;2023-04-06T04:24:40;22.70;;;8.80;;
67352;SDS011;54238;52.278;21.056;2023-04-06T04:27:07;15.70;;;7.90;;
67352;SDS011;54238;52.278;21.056;2023-04-06T04:29:39;14.20;;;7.40;;
67352;SDS011;54238;52.278;21.056;2023-04-06T04:32:13;19.50;;;8.00;;
67352;SDS011;54238;52.278;21.056;2023-04-06T04:34:40;18.70;;;8.20;;
67352;SDS011;54238;52.278;21.056;2023-04-06T04:37:07;17.20;;;7.50;;
67352;SDS011;54238;52.278;21.056;2023-04-06T04:39:38;17.80;;;7.60;;
67352;SDS011;54238;52.278;21.056;2023-04-06T04:42:08;18.70;;;8.50;;
67352;SDS011;54238;52.278;21.056;2023-04-06T04:44:45;17.30;;;9.00;;
67352;SDS011;54238;52.278;21.056;2023-04-06T04:47:19;18.20;;;8.30;;
67352;SDS011;54238;52.278;21.056;2023-04-06T04:49:46;25.60;;;8.70;;
67352;SDS011;54238;52.278;21.056;2023-04-06T04:52:18;19.40;;;7.60;;
67352;SDS011;54238;52.278;21.056;2023-04-06T04:54:47;20.00;;;8.90;;
67352;SDS011;54238;52.278;21.056;2023-04-06T04:57:17;15.40;;;7.50;;
67352;SDS011;54238;52.278;21.056;2023-04-06T04:59:46;17.20;;;7.90;;
67352;SDS011;54238;52.278;21.056;2023-04-06T05:02:20;13.30;;;6.40;;
67352;SDS011;54238;52.278;21.056;2023-04-06T05:04:48;13.30;;;7.10;;
67352;SDS011;54238;52.278;21.056;2023-04-06T05:07:17;10.80;;;6.10;;
67352;SDS011;54238;52.278;21.056;2023-04-06T05:09:48;17.90;;;6.40;;
67352;SDS011;54238;52.278;21.056;2023-04-06T05:12:16;13.30;;;6.90;;
67352;SDS011;54238;52.278;21.056;2023-04-06T05:14:45;16.40;;;6.30;;
67352;SDS011;54238;52.278;21.056;2023-04-06T05:17:14;16.20;;;6.60;;
67352;SDS011;54238;52.278;21.056;2023-04-06T05:19:48;15.90;;;6.80;;
67352;SDS011;54238;52.278;21.056;2023-04-06T05:22:20;13.50;;;6.50;;
67352;SDS011;54238;52.278;21.056;2023-04-06T05:24:51;15.20;;;6.40;;
67352;SDS011;54238;52.278;21.056;2023-04-06T05:27:19;13.30;;;7.40;;
67352;SDS011;54238;52.278;21.056;2023-04-06T05:29:46;15.90;;;5.60;;
67352;SDS011;54238;52.278;21.056;2023-04-06T05:32:15;15.80;;;7.90;;
67352;SDS011;54238;52.278;21.056;2023-04-06T05:34:42;11.00;;;6.60;;
67352;SDS011;54238;52.278;21.056;2023-04-06T05:37:09;16.80;;;6.20;;
67352;SDS011;54238;52.278;21.056;2023-04-06T05:39:44;12.00;;;4.90;;
67352;SDS011;54238;52.278;21.056;2023-04-06T05:42:11;12.90;;;5.00;;
67352;SDS011;54238;52.278;21.056;2023-04-06T05:44:43;5.90;;;3.50;;
67352;SDS011;54238;52.278;21.056;2023-04-06T05:47:10;7.50;;;4.80;;
67352;SDS011;54238;52.278;21.056;2023-04-06T05:49:41;9.60;;;5.20;;
67352;SDS011;54238;52.278;21.056;2023-04-06T05:52:09;10.40;;;5.30;;
67352;SDS011;54238;52.278;21.056;2023-04-06T05:54:37;10.60;;;4.50;;
67352;SDS011;54238;52.278;21.056;2023-04-06T05:57:06;8.40;;;5.30;;
67352;SDS011;54238;52.278;21.056;2023-04-06T05:59:33;8.80;;;4.20;;
67352;SDS011;54238;52.278;21.056;2023-04-06T06:02:03;15.50;;;5.10;;
67352;SDS011;54238;52.278;21.056;2023-04-06T06:04:38;9.60;;;5.20;;
67352;SDS011;54238;52.278;21.056;2023-04-06T06:07:07;8.10;;;4.80;;
67352;SDS011;54238;52.278;21.056;2023-04-06T06:09:34;5.50;;;3.30;;
67352;SDS011;54238;52.278;21.056;2023-04-06T06:12:05;8.10;;;3.80;;
67352;SDS011;54238;52.278;21.056;2023-04-06T06:14:32;10.70;;;4.30;;
67352;SDS011;54238;52.278;21.056;2023-04-06T06:16:59;9.20;;;4.20;;
67352;SDS011;54238;52.278;21.056;2023-04-06T06:19:29;7.60;;;4.20;;
67352;SDS011;54238;52.278;21.056;2023-04-06T06:22:00;8.90;;;3.30;;
67352;SDS011;54238;52.278;21.056;2023-04-06T06:24:31;7.80;;;3.40;;
67352;SDS011;54238;52.278;21.056;2023-04-06T06:27:02;7.70;;;3.70;;
67352;SDS011;54238;52.278;21.056;2023-04-06T06:29:34;8.20;;;4.10;;
67352;SDS011;54238;52.278;21.056;2023-04-06T06:32:04;7.00;;;3.40;;
67352;SDS011;54238;52.278;21.056;2023-04-06T06:34:31;9.70;;;4.50;;
67352;SDS011;54238;52.278;21.056;2023-04-06T06:37:03;7.60;;;3.20;;
67352;SDS011;54238;52.278;21.056;2023-04-06T06:39:30;6.30;;;3.60;;
67352;SDS011;54238;52.278;21.056;2023-04-06T06:41:59;6.20;;;3.40;;
67352;SDS011;54238;52.278;21.056;2023-04-06T06:44:29;6.20;;;3.60;;
67352;SDS011;54238;52.278;21.056;2023-04-06T06:46:59;10.60;;;4.00;;
67352;SDS011;54238;52.278;21.056;2023-04-06T06:49:28;7.60;;;3.30;;
67352;SDS011;54238;52.278;21.056;2023-04-06T06:51:58;6.50;;;3.40;;
67352;SDS011;54238;52.278;21.056;2023-04-06T06:54:32;8.20;;;3.40;;
67352;SDS011;54238;52.278;21.056;2023-04-06T06:57:01;5.10;;;3.10;;
67352;SDS011;54238;52.278;21.056;2023-04-06T06:59:31;8.10;;;3.40;;
67352;SDS011;54238;52.278;21.056;2023-04-06T07:02:00;6.40;;;3.00;;
67352;SDS011;54238;52.278;21.056;2023-04-06T07:04:30;7.20;;;3.30;;
67352;SDS011;54238;52.278;21.056;2023-04-06T07:07:05;5.70;;;2.70;;
67352;SDS011;54238;52.278;21.056;2023-04-06T07:09:35;7.90;;;3.40;;
67352;SDS011;54238;52.278;21.056;2023-04-06T07:12:06;6.60;;;3.70;;
67352;SDS011;54238;52.278;21.056;2023-04-06T07:14:36;5.80;;;3.50;;
67352;SDS011;54238;52.278;21.056;2023-04-06T07:17:05;6.40;;;3.30;;
67352;SDS011;54238;52.278;21.056;2023-04-06T07:19:32;6.00;;;3.30;;
67352;SDS011;54238;52.278;21.056;2023-04-06T07:22:04;7.00;;;3.00;;
67352;SDS011;54238;52.278;21.056;2023-04-06T07:24:31;6.20;;;3.10;;
67352;SDS011;54238;52.278;21.056;2023-04-06T07:27:01;5.30;;;3.30;;
67352;SDS011;54238;52.278;21.056;2023-04-06T07:29:32;6.30;;;3.40;;
67352;SDS011;54238;52.278;21.056;2023-04-06T07:32:04;6.60;;;2.50;;
67352;SDS011;54238;52.278;21.056;2023-04-06T07:34:38;7.00;;;3.80;;
67352;SDS011;54238;52.278;21.056;2023-04-06T07:37:06;4.70;;;2.80;;
67352;SDS011;54238;52.278;21.056;2023-04-06T07:39:36;6.00;;;2.80;;
67352;SDS011;54238;52.278;21.056;2023-04-06T07:42:04;5.70;;;4.00;;
67352;SDS011;54238;52.278;21.056;2023-04-06T07:44:35;7.60;;;3.10;;
67352;SDS011;54238;52.278;21.056;2023-04-06T07:47:06;8.30;;;3.50;;
67352;SDS011;54238;52.278;21.056;2023-04-06T07:49:36;5.40;;;3.20;;
67352;SDS011;54238;52.278;21.056;2023-04-06T07:52:03;6.50;;;3.80;;
67352;SDS011;54238;52.278;21.056;2023-04-06T07:54:30;6.70;;;3.50;;
67352;SDS011;54238;52.278;21.056;2023-04-06T07:56:57;10.20;;;4.00;;
67352;SDS011;54238;52.278;21.056;2023-04-06T07:59:25;8.50;;;3.60;;
67352;SDS011;54238;52.278;21.056;2023-04-06T08:01:55;6.00;;;3.30;;
67352;SDS011;54238;52.278;21.056;2023-04-06T08:04:22;6.50;;;3.10;;
67352;SDS011;54238;52.278;21.056;2023-04-06T08:06:51;8.50;;;3.50;;
67352;SDS011;54238;52.278;21.056;2023-04-06T08:09:20;11.30;;;3.70;;
67352;SDS011;54238;52.278;21.056;2023-04-06T08:11:50;6.30;;;3.20;;
67352;SDS011;54238;52.278;21.056;2023-04-06T08:14:50;7.70;;;3.40;;
67352;SDS011;54238;52.278;21.056;2023-04-06T08:17:22;10.40;;;3.90;;
67352;SDS011;54238;52.278;21.056;2023-04-06T08:19:54;7.90;;;3.10;;
67352;SDS011;54238;52.278;21.056;2023-04-06T08:22:23;7.10;;;3.70;;
67352;SDS011;54238;52.278;21.056;2023-04-06T08:24:53;10.40;;;3.40;;
67352;SDS011;54238;52.278;21.056;2023-04-06T08:27:20;8.40;;;3.60;;
67352;SDS011;54238;52.278;21.056;2023-04-06T08:29:49;14.60;;;3.40;;
67352;SDS011;54238;52.278;21.056;2023-04-06T08:32:18;5.50;;;3.10;;
67352;SDS011;54238;52.278;21.056;2023-04-06T08:34:46;6.40;;;2.90;;
67352;SDS011;54238;52.278;21.056;2023-04-06T08:37:13;6.40;;;3.00;;
67352;SDS011;54238;52.278;21.056;2023-04-06T08:39:45;5.00;;;3.20;;
67352;SDS011;54238;52.278;21.056;2023-04-06T08:42:19;6.60;;;3.10;;
67352;SDS011;54238;52.278;21.056;2023-04-06T08:44:50;7.10;;;3.30;;
67352;SDS011;54238;52.278;21.056;2023-04-06T08:47:19;6.30;;;3.10;;
67352;SDS011;54238;52.278;21.056;2023-04-06T08:49:51;7.20;;;2.80;;
67352;SDS011;54238;52.278;21.056;2023-04-06T08:52:21;6.70;;;3.50;;
67352;SDS011;54238;52.278;21.056;2023-04-06T08:54:56;4.90;;;2.90;;
67352;SDS011;54238;52.278;21.056;2023-04-06T08:57:23;5.40;;;3.20;;
67352;SDS011;54238;52.278;21.056;2023-04-06T08:59:54;7.80;;;3.80;;
67352;SDS011;54238;52.278;21.056;2023-04-06T09:02:26;7.00;;;3.20;;
67352;SDS011;54238;52.278;21.056;2023-04-06T09:04:57;6.00;;;2.70;;
67352;SDS011;54238;52.278;21.056;2023-04-06T09:07:26;6.40;;;3.00;;
67352;SDS011;54238;52.278;21.056;2023-04-06T09:09:56;6.60;;;3.10;;
67352;SDS011;54238;52.278;21.056;2023-04-06T09:12:31;4.40;;;3.20;;
67352;SDS011;54238;52.278;21.056;2023-04-06T09:15:01;10.40;;;3.90;;
67352;SDS011;54238;52.278;21.056;2023-04-06T09:17:32;6.90;;;3.20;;
67352;SDS011;54238;52.278;21.056;2023-04-06T09:20:09;5.20;;;2.90;;
67352;SDS011;54238;52.278;21.056;2023-04-06T09:22:40;9.80;;;3.50;;
67352;SDS011;54238;52.278;21.056;2023-04-06T09:25:19;4.80;;;3.40;;
67352;SDS011;54238;52.278;21.056;2023-04-06T09:28:01;5.80;;;3.60;;
67352;SDS011;54238;52.278;21.056;2023-04-06T09:30:47;7.50;;;3.30;;
67352;SDS011;54238;52.278;21.056;2023-04-06T09:33:23;5.60;;;3.60;;
67352;SDS011;54238;52.278;21.056;2023-04-06T09:35:55;6.20;;;3.70;;
67352;SDS011;54238;52.278;21.056;2023-04-06T09:46:47;6.60;;;3.80;;
67352;SDS011;54238;52.278;21.056;2023-04-06T09:49:14;9.60;;;3.90;;
67352;SDS011;54238;52.278;21.056;2023-04-06T09:52:06;6.90;;;4.00;;
67352;SDS011;54238;52.278;21.056;2023-04-06T09:54:37;6.40;;;3.60;;
67352;SDS011;54238;52.278;21.056;2023-04-06T09:57:11;6.90;;;3.50;;
67352;SDS011;54238;52.278;21.056;2023-04-06T10:08:11;6.80;;;3.70;;
67352;SDS011;54238;52.278;21.056;2023-04-06T10:10:43;8.30;;;3.90;;
67352;SDS011;54238;52.278;21.056;2023-04-06T10:13:11;11.40;;;4.90;;
67352;SDS011;54238;52.278;21.056;2023-04-06T10:15:41;7.20;;;4.50;;
67352;SDS011;54238;52.278;21.056;2023-04-06T10:18:09;8.70;;;5.40;;
67352;SDS011;54238;52.278;21.056;2023-04-06T10:20:43;8.10;;;4.60;;
67352;SDS011;54238;52.278;21.056;2023-04-06T10:25:56;8.70;;;4.30;;
67352;SDS011;54238;52.278;21.056;2023-04-06T10:28:32;6.00;;;4.00;;
67352;SDS011;54238;52.278;21.056;2023-04-06T10:31:05;6.30;;;3.90;;
67352;SDS011;54238;52.278;21.056;2023-04-06T10:33:33;6.50;;;3.70;;
67352;SDS011;54238;52.278;21.056;2023-04-06T10:39:14;8.10;;;4.30;;
67352;SDS011;54238;52.278;21.056;2023-04-06T10:41:51;8.50;;;5.00;;
67352;SDS011;54238;52.278;21.056;2023-04-06T10:44:24;10.00;;;4.60;;
67352;SDS011;54238;52.278;21.056;2023-04-06T10:46:59;9.20;;;5.50;;
67352;SDS011;54238;52.278;21.056;2023-04-06T10:49:34;7.30;;;4.20;;
67352;SDS011;54238;52.278;21.056;2023-04-06T10:52:06;7.90;;;4.50;;
67352;SDS011;54238;52.278;21.056;2023-04-06T10:54:41;6.70;;;4.20;;
67352;SDS011;54238;52.278;21.056;2023-04-06T10:57:10;13.60;;;5.90;;
67352;SDS011;54238;52.278;21.056;2023-04-06T10:59:42;11.50;;;4.70;;
67352;SDS011;54238;52.278;21.056;2023-04-06T11:02:20;11.70;;;4.40;;
67352;SDS011;54238;52.278;21.056;2023-04-06T11:04:58;10.80;;;4.80;;
67352;SDS011;54238;52.278;21.056;2023-04-06T11:07:28;6.80;;;3.40;;
67352;SDS011;54238;52.278;21.056;2023-04-06T11:12:32;9.40;;;5.10;;
67352;SDS011;54238;52.278;21.056;2023-04-06T11:15:03;10.10;;;4.60;;
67352;SDS011;54238;52.278;21.056;2023-04-06T11:17:35;7.70;;;4.00;;
67352;SDS011;54238;52.278;21.056;2023-04-06T11:20:04;7.70;;;4.80;;
67352;SDS011;54238;52.278;21.056;2023-04-06T11:22:50;9.80;;;4.60;;
67352;SDS011;54238;52.278;21.056;2023-04-06T11:25:20;7.20;;;4.60;;
67352;SDS011;54238;52.278;21.056;2023-04-06T11:27:50;8.70;;;4.70;;
67352;SDS011;54238;52.278;21.056;2023-04-06T11:30:20;6.20;;;4.50;;
67352;SDS011;54238;52.278;21.056;2023-04-06T11:32:47;6.60;;;4.00;;
67352;SDS011;54238;52.278;21.056;2023-04-06T11:35:22;7.90;;;4.70;;
67352;SDS011;54238;52.278;21.056;2023-04-06T11:37:54;7.70;;;4.00;;
67352;SDS011;54238;52.278;21.056;2023-04-06T11:40:22;11.80;;;4.60;;
67352;SDS011;54238;52.278;21.056;2023-04-06T11:42:57;9.90;;;4.50;;
67352;SDS011;54238;52.278;21.056;2023-04-06T11:45:26;6.40;;;4.60;;
67352;SDS011;54238;52.278;21.056;2023-04-06T11:48:19;7.90;;;4.00;;
67352;SDS011;54238;52.278;21.056;2023-04-06T11:50:58;7.10;;;4.40;;
67352;SDS011;54238;52.278;21.056;2023-04-06T11:53:29;7.30;;;4.20;;
67352;SDS011;54238;52.278;21.056;2023-04-06T11:55:58;7.60;;;4.10;;
67352;SDS011;54238;52.278;21.056;2023-04-06T11:58:27;7.60;;;4.20;;
67352;SDS011;54238;52.278;21.056;2023-04-06T12:01:03;6.10;;;3.80;;
67352;SDS011;54238;52.278;21.056;2023-04-06T12:03:31;6.70;;;4.30;;
67352;SDS011;54238;52.278;21.056;2023-04-06T12:06:01;5.50;;;3.70;;
67352;SDS011;54238;52.278;21.056;2023-04-06T12:08:29;8.70;;;4.40;;
67352;SDS011;54238;52.278;21.056;2023-04-06T12:10:58;8.80;;;4.30;;
67352;SDS011;54238;52.278;21.056;2023-04-06T12:13:28;9.10;;;3.90;;
67352;SDS011;54238;52.278;21.056;2023-04-06T12:15:57;7.30;;;4.00;;
67352;SDS011;54238;52.278;21.056;2023-04-06T12:18:24;6.30;;;3.90;;
67352;SDS011;54238;52.278;21.056;2023-04-06T12:20:56;10.30;;;5.50;;
67352;SDS011;54238;52.278;21.056;2023-04-06T12:23:30;6.60;;;4.20;;
67352;SDS011;54238;52.278;21.056;2023-04-06T12:25:59;8.50;;;4.60;;
67352;SDS011;54238;52.278;21.056;2023-04-06T12:28:29;7.90;;;4.20;;
67352;SDS011;54238;52.278;21.056;2023-04-06T12:31:01;8.40;;;4.10;;
67352;SDS011;54238;52.278;21.056;2023-04-06T12:33:30;9.50;;;4.20;;
67352;SDS011;54238;52.278;21.056;2023-04-06T12:35:58;7.30;;;4.70;;
67352;SDS011;54238;52.278;21.056;2023-04-06T12:38:25;4.90;;;3.50;;
67352;SDS011;54238;52.278;21.056;2023-04-06T12:40:56;9.60;;;5.60;;
67352;SDS011;54238;52.278;21.056;2023-04-06T12:43:28;7.50;;;4.80;;
67352;SDS011;54238;52.278;21.056;2023-04-06T12:45:57;8.30;;;4.10;;
67352;SDS011;54238;52.278;21.056;2023-04-06T12:48:26;7.10;;;4.60;;
67352;SDS011;54238;52.278;21.056;2023-04-06T12:51:02;6.70;;;4.00;;
67352;SDS011;54238;52.278;21.056;2023-04-06T12:53:34;6.20;;;4.30;;
67352;SDS011;54238;52.278;21.056;2023-04-06T12:56:16;6.10;;;4.10;;
67352;SDS011;54238;52.278;21.056;2023-04-06T12:58:47;7.70;;;4.00;;
67352;SDS011;54238;52.278;21.056;2023-04-06T13:01:19;7.00;;;4.20;;
67352;SDS011;54238;52.278;21.056;2023-04-06T13:03:50;7.70;;;3.70;;
67352;SDS011;54238;52.278;21.056;2023-04-06T13:06:20;6.60;;;4.10;;
67352;SDS011;54238;52.278;21.056;2023-04-06T13:08:54;11.00;;;4.80;;
67352;SDS011;54238;52.278;21.056;2023-04-06T13:11:21;8.50;;;3.50;;
67352;SDS011;54238;52.278;21.056;2023-04-06T13:13:50;5.40;;;3.90;;
67352;SDS011;54238;52.278;21.056;2023-04-06T13:16:19;7.50;;;4.20;;
67352;SDS011;54238;52.278;21.056;2023-04-06T13:18:51;6.90;;;4.30;;
67352;SDS011;54238;52.278;21.056;2023-04-06T13:21:18;6.00;;;4.10;;
67352;SDS011;54238;52.278;21.056;2023-04-06T13:23:50;6.50;;;3.80;;
67352;SDS011;54238;52.278;21.056;2023-04-06T13:26:17;5.50;;;3.40;;
67352;SDS011;54238;52.278;21.056;2023-04-06T13:28:48;7.60;;;4.40;;
67352;SDS011;54238;52.278;21.056;2023-04-06T13:31:16;6.70;;;3.50;;
67352;SDS011;54238;52.278;21.056;2023-04-06T13:33:50;6.90;;;4.40;;
67352;SDS011;54238;52.278;21.056;2023-04-06T13:36:19;5.90;;;4.20;;
67352;SDS011;54238;52.278;21.056;2023-04-06T13:38:49;7.80;;;3.90;;
67352;SDS011;54238;52.278;21.056;2023-04-06T13:41:23;7.30;;;4.30;;
67352;SDS011;54238;52.278;21.056;2023-04-06T13:43:52;5.40;;;4.00;;
67352;SDS011;54238;52.278;21.056;2023-04-06T13:46:19;7.30;;;4.30;;
67352;SDS011;54238;52.278;21.056;2023-04-06T13:48:49;7.70;;;4.60;;
67352;SDS011;54238;52.278;21.056;2023-04-06T13:51:18;8.90;;;4.20;;
67352;SDS011;54238;52.278;21.056;2023-04-06T13:53:46;6.20;;;3.50;;
67352;SDS011;54238;52.278;21.056;2023-04-06T13:56:19;9.40;;;4.20;;
67352;SDS011;54238;52.278;21.056;2023-04-06T13:58:55;6.20;;;4.00;;
67352;SDS011;54238;52.278;21.056;2023-04-06T14:01:23;9.90;;;4.70;;
67352;SDS011;54238;52.278;21.056;2023-04-06T14:03:55;6.00;;;3.30;;
67352;SDS011;54238;52.278;21.056;2023-04-06T14:06:27;6.20;;;4.10;;
67352;SDS011;54238;52.278;21.056;2023-04-06T14:08:57;5.30;;;3.00;;
67352;SDS011;54238;52.278;21.056;2023-04-06T14:11:28;7.00;;;4.30;;
67352;SDS011;54238;52.278;21.056;2023-04-06T14:13:55;6.50;;;3.90;;
67352;SDS011;54238;52.278;21.056;2023-04-06T14:16:25;10.10;;;4.90;;
67352;SDS011;54238;52.278;21.056;2023-04-06T14:18:54;8.70;;;4.90;;
67352;SDS011;54238;52.278;21.056;2023-04-06T14:21:28;7.60;;;4.40;;
67352;SDS011;54238;52.278;21.056;2023-04-06T14:23:58;11.00;;;4.50;;
67352;SDS011;54238;52.278;21.056;2023-04-06T14:26:47;8.50;;;4.70;;
67352;SDS011;54238;52.278;21.056;2023-04-06T14:29:19;8.00;;;4.60;;
67352;SDS011;54238;52.278;21.056;2023-04-06T14:31:53;6.50;;;3.40;;
67352;SDS011;54238;52.278;21.056;2023-04-06T14:34:31;10.20;;;5.00;;
67352;SDS011;54238;52.278;21.056;2023-04-06T14:36:58;7.00;;;4.20;;
67352;SDS011;54238;52.278;21.056;2023-04-06T14:39:27;7.70;;;4.40;;
67352;SDS011;54238;52.278;21.056;2023-04-06T14:41:57;7.40;;;4.60;;
67352;SDS011;54238;52.278;21.056;2023-04-06T14:44:29;7.60;;;4.00;;
67352;SDS011;54238;52.278;21.056;2023-04-06T14:46:56;7.10;;;3.80;;
67352;SDS011;54238;52.278;21.056;2023-04-06T14:49:27;6.90;;;4.30;;
67352;SDS011;54238;52.278;21.056;2023-04-06T14:51:54;8.30;;;4.40;;
67352;SDS011;54238;52.278;21.056;2023-04-06T14:54:22;7.80;;;4.60;;
67352;SDS011;54238;52.278;21.056;2023-04-06T14:56:49;10.10;;;4.40;;
67352;SDS011;54238;52.278;21.056;2023-04-06T14:59:16;7.80;;;4.80;;
67352;SDS011;54238;52.278;21.056;2023-04-06T15:01:43;10.80;;;5.40;;
67352;SDS011;54238;52.278;21.056;2023-04-06T15:04:12;10.20;;;5.40;;
67352;SDS011;54238;52.278;21.056;2023-04-06T15:07:04;6.50;;;3.60;;
67352;SDS011;54238;52.278;21.056;2023-04-06T15:09:35;10.00;;;5.70;;
67352;SDS011;54238;52.278;21.056;2023-04-06T15:12:07;10.20;;;5.30;;
67352;SDS011;54238;52.278;21.056;2023-04-06T15:14:36;7.10;;;4.40;;
67352;SDS011;54238;52.278;21.056;2023-04-06T15:17:03;9.30;;;5.40;;
67352;SDS011;54238;52.278;21.056;2023-04-06T15:19:33;8.50;;;5.10;;